createdAt,value
2017-08-30T00:00:06.483Z,0.00
2017-08-30T00:01:06.533Z,0.00
2017-08-30T00:02:06.584Z,0.00
2017-08-30T00:03:06.703Z,0.00
2017-08-30T00:04:06.755Z,0.00
2017-08-30T00:05:06.743Z,0.00
2017-08-30T00:06:06.816Z,0.00
2017-08-30T00:07:06.846Z,0.00
2017-08-30T00:08:06.898Z,0.00
2017-08-30T00:09:07.014Z,0.00
2017-08-30T00:10:06.999Z,0.00
2017-08-30T00:11:07.051Z,0.00
2017-08-30T00:12:07.108Z,0.00
2017-08-30T00:13:07.160Z,0.00
2017-08-30T00:14:07.272Z,0.00
2017-08-30T00:15:07.261Z,0.00
2017-08-30T00:16:07.315Z,0.00
2017-08-30T00:17:07.364Z,0.00
2017-08-30T00:18:07.418Z,0.00
2017-08-30T00:19:07.539Z,0.00
2017-08-30T00:20:07.524Z,0.00
2017-08-30T00:21:07.585Z,0.00
2017-08-30T00:22:07.628Z,0.00
2017-08-30T00:23:07.680Z,0.00
2017-08-30T00:24:07.790Z,0.00
2017-08-30T00:25:07.784Z,0.00
2017-08-30T00:26:07.839Z,0.00
2017-08-30T00:27:07.887Z,0.00
2017-08-30T00:28:07.944Z,0.00
2017-08-30T00:29:08.062Z,0.00
2017-08-30T00:30:08.042Z,0.00
2017-08-30T00:31:08.103Z,0.00
2017-08-30T00:32:08.146Z,0.00
2017-08-30T00:33:08.200Z,0.00
2017-08-30T00:34:08.334Z,0.00
2017-08-30T00:35:08.304Z,0.00
2017-08-30T00:36:08.353Z,0.00
2017-08-30T00:37:08.407Z,0.00
2017-08-30T00:38:08.460Z,0.00
2017-08-30T00:39:08.593Z,0.00
2017-08-30T00:40:08.563Z,0.00
2017-08-30T00:41:08.628Z,0.00
2017-08-30T00:42:08.668Z,0.00
2017-08-30T00:43:08.718Z,0.00
2017-08-30T00:44:08.841Z,0.00
2017-08-30T00:45:08.824Z,0.00
2017-08-30T00:46:08.878Z,0.00
2017-08-30T00:47:08.925Z,0.00
2017-08-30T00:48:08.979Z,0.00
2017-08-30T00:49:09.116Z,0.00
2017-08-30T00:50:09.080Z,0.00
2017-08-30T00:51:09.132Z,0.00
2017-08-30T00:52:09.189Z,0.00
2017-08-30T00:53:09.241Z,0.00
2017-08-30T00:54:09.357Z,0.00
2017-08-30T00:55:09.403Z,0.00
2017-08-30T00:56:09.394Z,0.00
2017-08-30T00:57:09.448Z,0.00
2017-08-30T00:58:09.509Z,0.00
2017-08-30T00:59:09.549Z,0.00
2017-08-30T01:00:09.675Z,0.00
2017-08-30T01:01:09.652Z,0.00
2017-08-30T01:02:09.721Z,0.00
2017-08-30T01:03:09.756Z,0.00
2017-08-30T01:04:09.810Z,0.00
2017-08-30T01:05:09.923Z,0.00
2017-08-30T01:06:09.975Z,0.00
2017-08-30T01:07:09.969Z,0.00
2017-08-30T01:08:10.023Z,0.00
2017-08-30T01:09:10.072Z,0.00
2017-08-30T01:10:10.126Z,0.00
2017-08-30T01:11:10.237Z,0.00
2017-08-30T01:12:10.228Z,0.00
2017-08-30T01:13:10.280Z,0.00
2017-08-30T01:14:10.331Z,0.00
2017-08-30T01:15:10.388Z,0.00
2017-08-30T01:16:10.495Z,0.00
2017-08-30T01:17:10.486Z,0.00
2017-08-30T01:18:10.535Z,0.00
2017-08-30T01:19:10.590Z,0.00
2017-08-30T01:20:10.638Z,0.00
2017-08-30T01:21:10.762Z,0.00
2017-08-30T01:22:10.742Z,0.00
2017-08-30T01:23:10.802Z,0.00
2017-08-30T01:24:10.846Z,0.00
2017-08-30T01:25:10.903Z,0.00
2017-08-30T01:26:11.034Z,0.00
2017-08-30T01:27:11.003Z,0.00
2017-08-30T01:28:11.058Z,0.00
2017-08-30T01:29:11.113Z,0.00
2017-08-30T01:30:11.159Z,0.00
2017-08-30T01:31:11.277Z,0.00
2017-08-30T01:32:11.265Z,0.00
2017-08-30T01:33:11.317Z,0.00
2017-08-30T01:34:11.366Z,0.00
2017-08-30T01:35:11.422Z,0.00
2017-08-30T01:36:11.549Z,0.00
2017-08-30T01:37:11.521Z,0.00
2017-08-30T01:38:11.576Z,0.00
2017-08-30T01:39:11.627Z,0.00
2017-08-30T01:40:11.687Z,0.00
2017-08-30T01:41:11.811Z,0.00
2017-08-30T01:42:11.778Z,0.00
2017-08-30T01:43:11.835Z,0.00
2017-08-30T01:44:11.889Z,0.00
2017-08-30T01:45:11.936Z,0.00
2017-08-30T01:46:12.072Z,0.00
2017-08-30T01:47:12.039Z,0.00
2017-08-30T01:48:12.099Z,0.00
2017-08-30T01:49:12.145Z,0.00
2017-08-30T01:50:12.194Z,0.00
2017-08-30T01:51:12.320Z,0.00
2017-08-30T01:52:12.301Z,0.00
2017-08-30T01:53:12.352Z,0.00
2017-08-30T01:54:12.401Z,0.00
2017-08-30T01:55:12.450Z,0.00
2017-08-30T01:56:12.590Z,0.00
2017-08-30T01:57:12.559Z,0.00
2017-08-30T01:58:12.606Z,0.00
2017-08-30T01:59:12.660Z,0.00
2017-08-30T02:00:12.712Z,0.00
2017-08-30T02:01:12.843Z,0.00
2017-08-30T02:02:12.818Z,0.00
2017-08-30T02:03:12.870Z,0.00
2017-08-30T02:04:12.924Z,0.00
2017-08-30T02:05:12.968Z,0.00
2017-08-30T02:06:13.081Z,0.00
2017-08-30T02:07:13.133Z,0.00
2017-08-30T02:08:13.126Z,0.00
2017-08-30T02:09:13.180Z,0.00
2017-08-30T02:10:13.226Z,0.00
2017-08-30T02:11:13.280Z,0.00
2017-08-30T02:12:13.391Z,0.00
2017-08-30T02:13:13.382Z,0.00
2017-08-30T02:14:13.438Z,0.00
2017-08-30T02:15:13.488Z,0.00
2017-08-30T02:16:13.535Z,0.00
2017-08-30T02:17:13.650Z,0.00
2017-08-30T02:18:13.639Z,0.00
2017-08-30T02:19:13.695Z,0.00
2017-08-30T02:20:13.742Z,0.00
2017-08-30T02:21:13.796Z,0.00
2017-08-30T02:22:13.907Z,0.00
2017-08-30T02:23:13.894Z,0.00
2017-08-30T02:24:13.946Z,0.00
2017-08-30T02:25:13.998Z,0.00
2017-08-30T02:26:14.053Z,0.00
2017-08-30T02:27:14.192Z,0.00
2017-08-30T02:28:14.162Z,0.00
2017-08-30T02:29:14.224Z,0.00
2017-08-30T02:30:14.260Z,0.00
2017-08-30T02:31:14.308Z,0.00
2017-08-30T02:32:14.424Z,0.00
2017-08-30T02:33:14.414Z,0.00
2017-08-30T02:34:14.474Z,0.00
2017-08-30T02:35:14.513Z,0.00
2017-08-30T02:36:14.568Z,0.00
2017-08-30T02:37:14.681Z,0.00
2017-08-30T02:38:14.673Z,0.00
2017-08-30T02:39:14.723Z,0.00
2017-08-30T02:40:14.774Z,0.00
2017-08-30T02:41:14.824Z,0.00
2017-08-30T02:42:14.961Z,0.00
2017-08-30T02:43:14.929Z,0.00
2017-08-30T02:44:14.982Z,0.00
2017-08-30T02:45:15.035Z,0.00
2017-08-30T02:46:15.086Z,0.00
2017-08-30T02:47:15.206Z,0.00
2017-08-30T02:48:15.191Z,0.00
2017-08-30T02:49:15.239Z,0.00
2017-08-30T02:50:15.289Z,0.00
2017-08-30T02:51:15.339Z,0.00
2017-08-30T02:52:15.475Z,0.00
2017-08-30T02:53:15.445Z,0.00
2017-08-30T02:54:15.496Z,0.00
2017-08-30T02:55:15.548Z,0.00
2017-08-30T02:56:15.601Z,0.00
2017-08-30T02:57:15.718Z,0.00
2017-08-30T02:58:15.702Z,0.00
2017-08-30T02:59:15.753Z,0.00
2017-08-30T03:00:15.802Z,0.00
2017-08-30T03:01:15.856Z,0.00
2017-08-30T03:02:15.990Z,0.00
2017-08-30T03:03:15.965Z,0.00
2017-08-30T03:04:16.009Z,0.00
2017-08-30T03:05:16.061Z,0.00
2017-08-30T03:06:16.115Z,0.00
2017-08-30T03:07:16.233Z,0.00
2017-08-30T03:08:16.216Z,0.00
2017-08-30T03:09:16.268Z,0.00
2017-08-30T03:10:16.317Z,0.00
2017-08-30T03:11:16.368Z,0.00
2017-08-30T03:12:16.503Z,0.00
2017-08-30T03:13:16.472Z,0.00
2017-08-30T03:14:16.527Z,0.00
2017-08-30T03:15:16.583Z,0.00
2017-08-30T03:16:16.632Z,0.00
2017-08-30T03:17:16.743Z,0.00
2017-08-30T03:18:16.792Z,0.00
2017-08-30T03:19:16.783Z,0.00
2017-08-30T03:20:16.874Z,0.00
2017-08-30T03:21:16.886Z,0.00
2017-08-30T03:22:16.940Z,0.00
2017-08-30T03:23:17.051Z,0.00
2017-08-30T03:24:17.039Z,0.00
2017-08-30T03:25:17.093Z,0.00
2017-08-30T03:26:17.142Z,0.00
2017-08-30T03:27:17.210Z,0.00
2017-08-30T03:28:17.338Z,0.00
2017-08-30T03:29:17.297Z,0.00
2017-08-30T03:30:17.350Z,0.00
2017-08-30T03:31:17.402Z,0.00
2017-08-30T03:32:17.450Z,0.00
2017-08-30T03:33:17.584Z,0.00
2017-08-30T03:34:17.556Z,0.00
2017-08-30T03:35:17.606Z,0.00
2017-08-30T03:36:17.657Z,0.00
2017-08-30T03:37:17.709Z,0.00
2017-08-30T03:38:17.847Z,0.00
2017-08-30T03:39:17.815Z,0.00
2017-08-30T03:40:17.864Z,0.00
2017-08-30T03:41:17.918Z,0.00
2017-08-30T03:42:17.965Z,0.00
2017-08-30T03:43:18.101Z,0.00
2017-08-30T03:44:18.071Z,0.00
2017-08-30T03:45:18.121Z,0.00
2017-08-30T03:46:18.175Z,0.00
2017-08-30T03:47:18.229Z,0.00
2017-08-30T03:48:18.355Z,0.00
2017-08-30T03:49:18.328Z,0.00
2017-08-30T03:50:18.377Z,0.00
2017-08-30T03:51:18.431Z,0.00
2017-08-30T03:52:18.480Z,0.00
2017-08-30T03:53:18.624Z,0.00
2017-08-30T03:54:18.584Z,0.00
2017-08-30T03:55:18.635Z,0.00
2017-08-30T03:56:18.687Z,0.00
2017-08-30T03:57:18.739Z,0.00
2017-08-30T03:58:18.851Z,0.00
2017-08-30T03:59:18.903Z,0.00
2017-08-30T04:00:18.894Z,0.00
2017-08-30T04:01:18.951Z,0.00
2017-08-30T04:02:18.998Z,0.00
2017-08-30T04:03:19.046Z,0.00
2017-08-30T04:04:19.178Z,0.00
2017-08-30T04:05:19.150Z,0.00
2017-08-30T04:06:19.199Z,0.00
2017-08-30T04:07:19.253Z,0.00
2017-08-30T04:08:19.303Z,0.00
2017-08-30T04:09:19.434Z,0.00
2017-08-30T04:10:19.404Z,0.00
2017-08-30T04:11:19.455Z,0.00
2017-08-30T04:12:19.509Z,0.00
2017-08-30T04:13:19.559Z,0.00
2017-08-30T04:14:19.672Z,0.00
2017-08-30T04:15:19.731Z,0.00
2017-08-30T04:16:19.712Z,0.00
2017-08-30T04:17:19.767Z,0.00
2017-08-30T04:18:19.815Z,0.00
2017-08-30T04:19:19.867Z,0.00
2017-08-30T04:20:19.983Z,0.00
2017-08-30T04:21:19.970Z,0.00
2017-08-30T04:22:20.023Z,0.00
2017-08-30T04:23:20.078Z,0.00
2017-08-30T04:24:20.125Z,0.00
2017-08-30T04:25:20.236Z,0.00
2017-08-30T04:26:20.224Z,0.00
2017-08-30T04:27:20.278Z,0.00
2017-08-30T04:28:20.345Z,5.63
2017-08-30T04:29:20.384Z,5.63
2017-08-30T04:30:20.514Z,5.63
2017-08-30T04:31:20.488Z,5.63
2017-08-30T04:32:20.535Z,5.63
2017-08-30T04:33:20.584Z,5.63
2017-08-30T04:34:20.639Z,5.63
2017-08-30T04:35:20.756Z,11.25
2017-08-30T04:36:20.742Z,11.25
2017-08-30T04:37:20.790Z,11.25
2017-08-30T04:38:20.842Z,11.25
2017-08-30T04:39:20.902Z,16.88
2017-08-30T04:40:21.025Z,16.88
2017-08-30T04:41:21.001Z,16.88
2017-08-30T04:42:21.044Z,16.88
2017-08-30T04:43:21.099Z,22.50
2017-08-30T04:44:21.148Z,22.50
2017-08-30T04:45:21.274Z,22.50
2017-08-30T04:46:21.315Z,28.13
2017-08-30T04:47:21.303Z,28.13
2017-08-30T04:48:21.355Z,33.75
2017-08-30T04:49:21.406Z,33.75
2017-08-30T04:50:21.461Z,33.75
2017-08-30T04:51:21.571Z,39.38
2017-08-30T04:52:21.559Z,39.38
2017-08-30T04:53:21.612Z,45.00
2017-08-30T04:54:21.663Z,45.00
2017-08-30T04:55:21.715Z,50.63
2017-08-30T04:56:21.853Z,50.63
2017-08-30T04:57:21.818Z,50.63
2017-08-30T04:58:21.870Z,56.25
2017-08-30T04:59:21.920Z,56.25
2017-08-30T05:00:21.971Z,61.88
2017-08-30T05:01:22.080Z,61.88
2017-08-30T05:02:22.137Z,67.50
2017-08-30T05:03:22.123Z,67.50
2017-08-30T05:04:22.177Z,73.13
2017-08-30T05:05:22.230Z,73.13
2017-08-30T05:06:22.361Z,78.75
2017-08-30T05:07:22.328Z,78.75
2017-08-30T05:08:22.384Z,84.38
2017-08-30T05:09:22.434Z,84.38
2017-08-30T05:10:22.483Z,90.00
2017-08-30T05:11:22.606Z,95.63
2017-08-30T05:12:22.584Z,95.63
2017-08-30T05:13:22.638Z,101.25
2017-08-30T05:14:22.687Z,101.25
2017-08-30T05:15:22.740Z,106.88
2017-08-30T05:16:22.871Z,106.88
2017-08-30T05:17:22.856Z,112.50
2017-08-30T05:18:22.897Z,112.50
2017-08-30T05:19:22.949Z,118.13
2017-08-30T05:20:22.998Z,123.75
2017-08-30T05:21:23.119Z,123.75
2017-08-30T05:22:23.102Z,129.38
2017-08-30T05:23:23.155Z,129.38
2017-08-30T05:24:23.203Z,135.00
2017-08-30T05:25:23.262Z,135.00
2017-08-30T05:26:23.370Z,140.63
2017-08-30T05:27:24.328Z,140.63
2017-08-30T05:28:23.412Z,146.25
2017-08-30T05:29:23.463Z,146.25
2017-08-30T05:30:23.513Z,146.25
2017-08-30T05:31:23.567Z,151.88
2017-08-30T05:32:23.680Z,151.88
2017-08-30T05:33:23.668Z,151.88
2017-08-30T05:34:23.723Z,151.88
2017-08-30T05:35:23.774Z,157.50
2017-08-30T05:36:23.826Z,157.50
2017-08-30T05:37:23.954Z,163.13
2017-08-30T05:38:23.926Z,163.13
2017-08-30T05:39:26.602Z,163.13
2017-08-30T05:40:26.621Z,168.75
2017-08-30T05:41:26.721Z,168.75
2017-08-30T05:42:28.019Z,174.38
2017-08-30T05:43:25.582Z,174.38
2017-08-30T05:44:26.005Z,180.00
2017-08-30T05:45:26.836Z,180.00
2017-08-30T05:46:27.028Z,185.63
2017-08-30T05:47:25.834Z,185.63
2017-08-30T05:48:27.696Z,191.25
2017-08-30T05:49:25.427Z,191.25
2017-08-30T05:50:25.563Z,196.88
2017-08-30T05:51:26.818Z,196.88
2017-08-30T05:52:26.287Z,202.50
2017-08-30T05:53:28.779Z,202.50
2017-08-30T05:54:25.770Z,208.13
2017-08-30T05:55:27.436Z,208.13
2017-08-30T05:56:27.442Z,213.75
2017-08-30T05:57:27.503Z,213.75
2017-08-30T05:58:27.515Z,219.38
2017-08-30T05:59:26.437Z,219.38
2017-08-30T06:00:26.177Z,225.00
2017-08-30T06:01:28.100Z,230.63
2017-08-30T06:02:26.209Z,236.25
2017-08-30T06:03:29.210Z,241.88
2017-08-30T06:04:27.639Z,247.50
2017-08-30T06:05:26.588Z,247.50
2017-08-30T06:06:26.428Z,258.75
2017-08-30T06:07:26.970Z,258.75
2017-08-30T06:08:28.299Z,264.38
2017-08-30T06:09:27.209Z,264.38
2017-08-30T06:10:28.167Z,270.00
2017-08-30T06:11:28.269Z,270.00
2017-08-30T06:12:28.282Z,275.63
2017-08-30T06:13:27.832Z,275.63
2017-08-30T06:14:29.795Z,281.25
2017-08-30T06:15:28.323Z,281.25
2017-08-30T06:16:27.520Z,281.25
2017-08-30T06:17:27.348Z,281.25
2017-08-30T06:18:27.041Z,286.88
2017-08-30T06:19:27.210Z,286.88
2017-08-30T06:20:27.929Z,292.50
2017-08-30T06:21:28.519Z,298.13
2017-08-30T06:22:28.506Z,303.75
2017-08-30T06:23:29.683Z,309.38
2017-08-30T06:24:28.935Z,309.38
2017-08-30T06:25:28.104Z,320.63
2017-08-30T06:26:28.638Z,326.25
2017-08-30T06:27:28.175Z,337.50
2017-08-30T06:28:28.561Z,343.13
2017-08-30T06:29:27.826Z,348.75
2017-08-30T06:30:30.678Z,360.00
2017-08-30T06:31:28.528Z,365.63
2017-08-30T06:32:27.499Z,371.25
2017-08-30T06:33:28.033Z,371.25
2017-08-30T06:34:28.660Z,371.25
2017-08-30T06:35:29.303Z,382.50
2017-08-30T06:36:29.490Z,388.13
2017-08-30T06:37:29.180Z,427.50
2017-08-30T06:38:28.244Z,500.63
2017-08-30T06:39:28.442Z,523.13
2017-08-30T06:40:30.210Z,528.75
2017-08-30T06:41:29.756Z,540.00
2017-08-30T06:42:29.824Z,545.63
2017-08-30T06:43:27.896Z,545.63
2017-08-30T06:44:28.309Z,545.63
2017-08-30T06:45:28.954Z,551.25
2017-08-30T06:46:28.979Z,545.63
2017-08-30T06:47:30.033Z,551.25
2017-08-30T06:48:30.034Z,545.63
2017-08-30T06:49:30.192Z,540.00
2017-08-30T06:50:30.124Z,523.13
2017-08-30T06:51:31.556Z,517.50
2017-08-30T06:52:31.322Z,534.38
2017-08-30T06:53:31.043Z,551.25
2017-08-30T06:54:29.971Z,551.25
2017-08-30T06:55:29.002Z,551.25
2017-08-30T06:56:32.014Z,528.75
2017-08-30T06:57:30.717Z,511.88
2017-08-30T06:58:31.329Z,517.50
2017-08-30T06:59:30.636Z,511.88
2017-08-30T07:00:30.467Z,517.50
2017-08-30T07:01:29.514Z,523.13
2017-08-30T07:02:29.757Z,511.88
2017-08-30T07:03:29.392Z,534.38
2017-08-30T07:04:29.998Z,534.38
2017-08-30T07:05:29.915Z,551.25
2017-08-30T07:06:31.278Z,556.88
2017-08-30T07:07:32.462Z,596.25
2017-08-30T07:08:30.974Z,607.50
2017-08-30T07:09:30.482Z,590.63
2017-08-30T07:10:31.337Z,596.25
2017-08-30T07:11:30.946Z,641.25
2017-08-30T07:12:31.741Z,691.88
2017-08-30T07:13:31.569Z,691.88
2017-08-30T07:14:31.496Z,720.00
2017-08-30T07:15:30.237Z,714.38
2017-08-30T07:16:33.349Z,697.50
2017-08-30T07:17:33.184Z,635.63
2017-08-30T07:18:31.910Z,652.50
2017-08-30T07:19:31.782Z,731.25
2017-08-30T07:20:30.842Z,770.63
2017-08-30T07:21:30.574Z,793.13
2017-08-30T07:22:31.468Z,849.38
2017-08-30T07:23:30.974Z,877.50
2017-08-30T07:24:31.325Z,883.13
2017-08-30T07:25:31.974Z,871.88
2017-08-30T07:26:32.131Z,860.63
2017-08-30T07:27:31.661Z,843.75
2017-08-30T07:28:31.337Z,821.25
2017-08-30T07:29:32.459Z,810.00
2017-08-30T07:30:32.278Z,866.25
2017-08-30T07:31:31.182Z,832.50
2017-08-30T07:32:31.268Z,900.00
2017-08-30T07:33:32.629Z,950.63
2017-08-30T07:34:31.326Z,995.63
2017-08-30T07:35:30.925Z,1035.00
2017-08-30T07:36:31.832Z,905.63
2017-08-30T07:37:32.586Z,990.00
2017-08-30T07:38:33.013Z,1035.00
2017-08-30T07:39:31.341Z,1001.25
2017-08-30T07:40:31.493Z,871.88
2017-08-30T07:41:33.448Z,849.38
2017-08-30T07:42:31.428Z,883.13
2017-08-30T07:43:34.640Z,995.63
2017-08-30T07:44:33.283Z,950.63
2017-08-30T07:45:33.355Z,950.63
2017-08-30T07:46:33.127Z,945.00
2017-08-30T07:47:33.478Z,984.38
2017-08-30T07:48:33.496Z,928.13
2017-08-30T07:49:34.236Z,832.50
2017-08-30T07:50:32.819Z,1068.75
2017-08-30T07:51:32.766Z,1125.00
2017-08-30T07:52:32.073Z,1198.13
2017-08-30T07:53:32.131Z,1243.13
2017-08-30T07:54:33.860Z,1288.13
2017-08-30T07:55:33.354Z,1254.38
2017-08-30T07:56:33.499Z,1237.50
2017-08-30T07:57:32.562Z,1260.00
2017-08-30T07:58:32.651Z,1237.50
2017-08-30T07:59:33.536Z,1248.75
2017-08-30T08:00:32.993Z,1209.38
2017-08-30T08:01:34.015Z,1186.88
2017-08-30T08:02:33.075Z,1170.00
2017-08-30T08:03:33.583Z,1170.00
2017-08-30T08:04:34.859Z,1220.63
2017-08-30T08:05:32.986Z,1203.75
2017-08-30T08:06:34.732Z,1276.88
2017-08-30T08:07:33.549Z,1271.25
2017-08-30T08:08:33.006Z,1321.88
2017-08-30T08:09:34.251Z,1321.88
2017-08-30T08:10:34.656Z,1366.88
2017-08-30T08:11:34.419Z,1513.13
2017-08-30T08:12:35.816Z,1558.13
2017-08-30T08:13:34.721Z,1558.13
2017-08-30T08:14:33.466Z,1580.63
2017-08-30T08:15:33.947Z,1580.63
2017-08-30T08:16:33.978Z,1620.00
2017-08-30T08:17:33.799Z,1575.00
2017-08-30T08:18:33.450Z,1513.13
2017-08-30T08:19:33.608Z,1603.13
2017-08-30T08:20:35.754Z,1653.75
2017-08-30T08:21:35.376Z,1681.88
2017-08-30T08:22:36.344Z,1681.88
2017-08-30T08:23:34.126Z,1597.50
2017-08-30T08:24:33.966Z,1625.63
2017-08-30T08:25:35.996Z,1620.00
2017-08-30T08:26:34.975Z,1597.50
2017-08-30T08:27:35.470Z,1513.13
2017-08-30T08:28:35.521Z,1513.13
2017-08-30T08:29:35.150Z,1496.25
2017-08-30T08:30:35.575Z,1473.75
2017-08-30T08:31:34.519Z,1546.88
2017-08-30T08:32:34.334Z,1586.25
2017-08-30T08:33:36.077Z,1558.13
2017-08-30T08:34:34.292Z,1507.50
2017-08-30T08:35:35.150Z,1423.13
2017-08-30T08:36:38.304Z,1406.25
2017-08-30T08:37:36.264Z,1428.75
2017-08-30T08:38:36.288Z,1563.75
2017-08-30T08:39:36.321Z,1586.25
2017-08-30T08:40:35.464Z,1569.38
2017-08-30T08:41:35.722Z,1569.38
2017-08-30T08:42:35.684Z,1552.50
2017-08-30T08:43:36.051Z,1563.75
2017-08-30T08:44:36.662Z,1496.25
2017-08-30T08:45:36.711Z,1468.13
2017-08-30T08:46:38.226Z,1456.88
2017-08-30T08:47:36.844Z,1501.88
2017-08-30T08:48:36.509Z,1468.13
2017-08-30T08:49:35.551Z,1451.25
2017-08-30T08:50:35.522Z,1451.25
2017-08-30T08:51:36.034Z,1440.00
2017-08-30T08:52:35.774Z,1440.00
2017-08-30T08:53:36.194Z,1479.38
2017-08-30T08:54:35.696Z,1496.25
2017-08-30T08:55:35.519Z,1530.00
2017-08-30T08:56:36.006Z,1535.63
2017-08-30T08:57:38.862Z,1338.75
2017-08-30T08:58:37.519Z,1541.25
2017-08-30T08:59:37.563Z,1563.75
2017-08-30T09:00:37.052Z,1513.13
2017-08-30T09:01:35.716Z,1473.75
2017-08-30T09:02:36.812Z,1417.50
2017-08-30T09:03:35.937Z,1400.63
2017-08-30T09:04:36.511Z,1400.63
2017-08-30T09:05:36.257Z,1338.75
2017-08-30T09:06:37.880Z,1265.63
2017-08-30T09:07:39.387Z,1226.25
2017-08-30T09:08:37.786Z,1136.25
2017-08-30T09:09:36.157Z,1102.50
2017-08-30T09:10:36.545Z,1102.50
2017-08-30T09:11:36.997Z,1051.88
2017-08-30T09:12:37.507Z,1125.00
2017-08-30T09:13:37.558Z,1209.38
2017-08-30T09:14:38.021Z,1231.88
2017-08-30T09:15:38.081Z,1170.00
2017-08-30T09:16:37.404Z,1186.88
2017-08-30T09:17:37.045Z,1243.13
2017-08-30T09:18:37.629Z,1310.63
2017-08-30T09:19:37.490Z,1333.13
2017-08-30T09:20:37.160Z,1305.00
2017-08-30T09:21:38.736Z,1485.00
2017-08-30T09:22:39.551Z,1586.25
2017-08-30T09:23:39.688Z,1732.50
2017-08-30T09:24:38.504Z,1721.25
2017-08-30T09:25:37.483Z,1901.25
2017-08-30T09:26:39.020Z,2053.13
2017-08-30T09:27:38.906Z,2103.75
2017-08-30T09:28:37.667Z,2182.50
2017-08-30T09:29:39.124Z,2148.75
2017-08-30T09:30:37.615Z,2266.88
2017-08-30T09:31:38.382Z,2317.50
2017-08-30T09:32:38.267Z,2424.38
2017-08-30T09:33:38.667Z,2272.50
2017-08-30T09:34:39.535Z,2238.75
2017-08-30T09:35:39.649Z,2531.25
2017-08-30T09:36:39.701Z,2508.75
2017-08-30T09:37:39.771Z,2700.00
2017-08-30T09:38:40.422Z,2649.38
2017-08-30T09:39:40.722Z,2812.50
2017-08-30T09:40:40.024Z,2851.88
2017-08-30T09:41:40.052Z,2812.50
2017-08-30T09:42:40.029Z,2812.50
2017-08-30T09:43:38.595Z,2767.50
2017-08-30T09:44:42.383Z,2716.88
2017-08-30T09:45:40.158Z,2801.25
2017-08-30T09:46:38.530Z,2806.88
2017-08-30T09:47:38.428Z,2835.00
2017-08-30T09:48:38.674Z,2840.63
2017-08-30T09:49:39.602Z,2930.63
2017-08-30T09:50:41.585Z,2761.88
2017-08-30T09:51:40.559Z,2722.50
2017-08-30T09:52:38.862Z,2548.13
2017-08-30T09:53:40.212Z,2649.38
2017-08-30T09:54:40.113Z,2559.38
2017-08-30T09:55:42.136Z,2621.25
2017-08-30T09:56:40.028Z,2593.13
2017-08-30T09:57:39.806Z,2542.50
2017-08-30T09:58:40.161Z,2716.88
2017-08-30T09:59:39.266Z,2756.25
2017-08-30T10:00:40.106Z,2728.13
2017-08-30T10:01:41.174Z,2683.13
2017-08-30T10:02:40.800Z,2767.50
2017-08-30T10:03:40.522Z,2846.25
2017-08-30T10:04:41.619Z,2868.75
2017-08-30T10:05:39.407Z,2930.63
2017-08-30T10:06:39.933Z,2958.75
2017-08-30T10:07:41.072Z,2964.38
2017-08-30T10:08:41.060Z,3065.63
2017-08-30T10:09:41.311Z,3060.00
2017-08-30T10:10:40.374Z,3082.50
2017-08-30T10:11:40.871Z,2970.00
2017-08-30T10:12:40.171Z,2846.25
2017-08-30T10:13:41.035Z,2818.13
2017-08-30T10:14:40.374Z,2902.50
2017-08-30T10:15:42.040Z,3015.00
2017-08-30T10:16:43.151Z,3065.63
2017-08-30T10:17:40.392Z,2913.75
2017-08-30T10:18:40.878Z,2756.25
2017-08-30T10:19:40.522Z,2891.25
2017-08-30T10:20:40.734Z,3223.13
2017-08-30T10:21:42.801Z,3330.00
2017-08-30T10:22:42.516Z,3245.63
2017-08-30T10:23:42.289Z,2998.13
2017-08-30T10:24:40.488Z,2323.13
2017-08-30T10:25:41.609Z,1991.25
2017-08-30T10:26:41.706Z,2356.88
2017-08-30T10:27:41.222Z,2503.13
2017-08-30T10:28:40.810Z,2407.50
2017-08-30T10:29:42.341Z,2486.25
2017-08-30T10:30:42.790Z,2441.25
2017-08-30T10:31:41.135Z,2205.00
2017-08-30T10:32:41.830Z,2036.25
2017-08-30T10:33:41.392Z,2025.00
2017-08-30T10:34:41.552Z,1918.13
2017-08-30T10:35:41.440Z,1918.13
2017-08-30T10:36:43.575Z,1850.63
2017-08-30T10:37:44.605Z,1856.25
2017-08-30T10:38:43.387Z,1749.38
2017-08-30T10:39:43.075Z,1777.50
2017-08-30T10:40:42.351Z,1726.88
2017-08-30T10:41:42.873Z,1631.25
2017-08-30T10:42:43.586Z,1642.50
2017-08-30T10:43:44.091Z,1670.63
2017-08-30T10:44:42.099Z,1552.50
2017-08-30T10:45:42.392Z,1406.25
2017-08-30T10:46:42.412Z,1417.50
2017-08-30T10:47:43.861Z,1445.63
2017-08-30T10:48:45.109Z,1507.50
2017-08-30T10:49:42.438Z,1614.38
2017-08-30T10:50:43.043Z,1636.88
2017-08-30T10:51:42.647Z,1794.38
2017-08-30T10:52:44.216Z,1833.75
2017-08-30T10:53:45.452Z,1839.38
2017-08-30T10:54:43.152Z,1884.38
2017-08-30T10:55:42.602Z,1861.88
2017-08-30T10:56:42.662Z,1850.63
2017-08-30T10:57:42.788Z,1912.50
2017-08-30T10:58:43.502Z,1985.63
2017-08-30T10:59:43.931Z,2120.63
2017-08-30T11:00:43.323Z,2165.63
2017-08-30T11:01:44.612Z,2266.88
2017-08-30T11:02:44.746Z,2300.63
2017-08-30T11:03:45.714Z,2368.13
2017-08-30T11:04:44.405Z,2475.00
2017-08-30T11:05:43.568Z,2514.38
2017-08-30T11:06:45.114Z,2525.63
2017-08-30T11:07:45.145Z,2480.63
2017-08-30T11:08:44.063Z,2491.88
2017-08-30T11:09:44.610Z,2463.75
2017-08-30T11:10:43.819Z,2401.88
2017-08-30T11:11:44.130Z,2441.25
2017-08-30T11:12:44.137Z,2655.00
2017-08-30T11:13:44.249Z,2621.25
2017-08-30T11:14:44.682Z,2570.63
2017-08-30T11:15:45.548Z,2671.88
2017-08-30T11:16:45.149Z,2739.38
2017-08-30T11:17:44.881Z,2829.38
2017-08-30T11:18:44.604Z,3037.50
2017-08-30T11:19:45.138Z,3093.75
2017-08-30T11:20:44.336Z,2311.88
2017-08-30T11:21:44.580Z,2874.38
2017-08-30T11:22:46.059Z,3397.50
2017-08-30T11:23:44.582Z,3144.38
2017-08-30T11:24:44.676Z,3369.38
2017-08-30T11:25:45.568Z,3538.13
2017-08-30T11:26:44.933Z,2885.63
2017-08-30T11:27:44.810Z,2705.63
2017-08-30T11:28:46.900Z,3307.50
2017-08-30T11:29:46.376Z,3256.88
2017-08-30T11:30:46.780Z,3375.00
2017-08-30T11:31:45.081Z,3290.63
2017-08-30T11:32:45.057Z,3296.25
2017-08-30T11:33:45.034Z,3240.00
2017-08-30T11:34:44.952Z,2885.63
2017-08-30T11:35:46.154Z,3071.25
2017-08-30T11:36:46.580Z,2868.75
2017-08-30T11:37:46.398Z,2992.50
2017-08-30T11:38:46.313Z,3105.00
2017-08-30T11:39:46.767Z,3279.38
2017-08-30T11:40:47.110Z,3324.38
2017-08-30T11:41:48.328Z,3420.00
2017-08-30T11:42:45.618Z,3358.13
2017-08-30T11:43:45.581Z,3380.63
2017-08-30T11:44:45.711Z,3403.13
2017-08-30T11:45:46.266Z,3301.88
2017-08-30T11:46:46.655Z,3262.50
2017-08-30T11:47:46.860Z,3240.00
2017-08-30T11:48:46.040Z,3206.25
2017-08-30T11:49:46.378Z,3195.00
2017-08-30T11:50:46.375Z,3211.88
2017-08-30T11:51:46.357Z,3150.00
2017-08-30T11:52:47.482Z,3223.13
2017-08-30T11:53:46.174Z,3200.63
2017-08-30T11:54:46.311Z,3223.13
2017-08-30T11:55:46.459Z,3183.75
2017-08-30T11:56:46.781Z,3172.50
2017-08-30T11:57:48.356Z,3211.88
2017-08-30T11:58:46.550Z,3172.50
2017-08-30T11:59:46.345Z,3076.88
2017-08-30T12:00:47.200Z,2970.00
2017-08-30T12:01:47.289Z,2947.50
2017-08-30T12:02:47.769Z,3071.25
2017-08-30T12:03:47.774Z,2992.50
2017-08-30T12:04:47.320Z,2913.75
2017-08-30T12:05:46.046Z,2846.25
2017-08-30T12:06:46.106Z,2857.50
2017-08-30T12:07:46.333Z,2868.75
2017-08-30T12:08:46.217Z,2835.00
2017-08-30T12:09:46.290Z,2868.75
2017-08-30T12:10:46.361Z,2880.00
2017-08-30T12:11:46.415Z,2885.63
2017-08-30T12:12:46.901Z,2835.00
2017-08-30T12:13:46.529Z,2778.75
2017-08-30T12:14:46.575Z,2818.13
2017-08-30T12:15:46.635Z,2716.88
2017-08-30T12:16:46.701Z,2643.75
2017-08-30T12:17:46.850Z,2626.88
2017-08-30T12:18:46.823Z,2486.25
2017-08-30T12:19:46.885Z,2340.00
2017-08-30T12:20:46.947Z,2407.50
2017-08-30T12:21:47.012Z,2424.38
2017-08-30T12:22:47.151Z,2396.25
2017-08-30T12:23:47.134Z,2171.25
2017-08-30T12:24:47.204Z,2171.25
2017-08-30T12:25:47.262Z,2002.50
2017-08-30T12:26:47.324Z,1895.63
2017-08-30T12:27:47.470Z,1783.13
2017-08-30T12:28:47.448Z,1783.13
2017-08-30T12:29:47.513Z,1935.00
2017-08-30T12:30:47.576Z,2036.25
2017-08-30T12:31:47.636Z,2238.75
2017-08-30T12:32:47.769Z,2424.38
2017-08-30T12:33:47.763Z,2508.75
2017-08-30T12:34:47.822Z,2621.25
2017-08-30T12:35:47.883Z,2655.00
2017-08-30T12:36:47.953Z,2660.63
2017-08-30T12:37:48.086Z,2677.50